KPLN/PLN METAR and TAF weather

Enter ICAO airport designator
Station Type Date Time Source
KPLN METAR 2022/09/28 18:54 UTC NOAA

KPLN 281854Z AUTO 01005KT 10SM BKN031 OVC035 11/04 A3046 RMK AO2 SLP318 T01060039


Station Type Date Time Source
KPLN Decoded METAR 2022/09/28 18:54 UTC NOAA

PELLSTON REGIONAL AIRPORT, MI, United States (KPLN) 45-34N 084-48W 217M
Sep 28, 2022 - 02:54 PM EDT / 2022.09.28 1854 UTC
Wind: from the N (010 degrees) at 6 MPH (5 KT):0
Visibility: 10 mile(s):0
Sky conditions: overcast
Temperature: 51.1 F (10.6 C)
Dew Point: 39.0 F (3.9 C)
Relative Humidity: 63%
Pressure (altimeter): 30.46 in. Hg (1031 hPa)
ob: KPLN 281854Z AUTO 01005KT 10SM BKN031 OVC035 11/04 A3046 RMK AO2 SLP318 T01060039
cycle: 19

Station Type Date Time Source
KPLN TAF 2022/09/28 19:59 UTC NOAA

TAF
AMD KPLN 281859Z 2819/2918 36007KT P6SM BKN035
FM282200 34007KT P6SM SCT040
FM290400 00000KT P6SM SKC

Example: see airport list